createdAt,value
2022-08-07T00:00:44.895Z,95.90
2022-08-07T00:02:41.084Z,96.20
2022-08-07T00:02:45.871Z,96.61
2022-08-07T00:03:47.540Z,96.86
2022-08-07T00:04:45.347Z,97.06
2022-08-07T00:05:44.837Z,97.27
2022-08-07T00:06:51.933Z,97.57
2022-08-07T00:07:45.810Z,97.57
2022-08-07T00:08:44.799Z,97.57
2022-08-07T00:10:04.648Z,97.78
2022-08-07T00:10:48.146Z,97.78
2022-08-07T00:11:54.011Z,97.88
2022-08-07T00:13:00.115Z,97.98
2022-08-07T00:13:45.757Z,98.08
2022-08-07T00:14:44.759Z,98.28
2022-08-07T00:15:46.325Z,98.28
2022-08-07T00:16:45.710Z,98.39
2022-08-07T00:17:44.711Z,98.39
2022-08-07T00:18:44.689Z,98.64
2022-08-07T00:20:01.274Z,98.74
2022-08-07T00:20:45.691Z,98.69
2022-08-07T00:21:56.569Z,98.69
2022-08-07T00:22:51.709Z,98.79
2022-08-07T00:23:45.636Z,99.10
2022-08-07T00:24:44.657Z,99.10
2022-08-07T00:25:46.012Z,99.00
2022-08-07T00:26:58.725Z,99.10
2022-08-07T00:27:52.592Z,99.20
2022-08-07T00:28:55.313Z,99.30
2022-08-07T00:29:45.590Z,99.00
2022-08-07T00:30:44.583Z,99.00
2022-08-07T00:31:44.550Z,98.69
2022-08-07T00:32:45.551Z,98.79
2022-08-07T00:33:47.443Z,98.74
2022-08-07T00:34:44.513Z,98.74
2022-08-07T00:35:49.715Z,98.94
2022-08-07T00:36:45.492Z,99.04
2022-08-07T00:37:48.411Z,99.35
2022-08-07T00:38:44.474Z,99.35
2022-08-07T00:39:44.829Z,99.35
2022-08-07T00:40:44.483Z,99.35
2022-08-07T00:41:45.379Z,99.15
2022-08-07T00:42:45.430Z,99.04
2022-08-07T00:44:02.061Z,98.84
2022-08-07T00:44:45.403Z,98.64
2022-08-07T00:45:46.450Z,98.33
2022-08-07T00:46:44.383Z,98.23
2022-08-07T00:48:08.218Z,98.27
2022-08-07T00:48:45.365Z,98.27
2022-08-07T00:50:21.131Z,98.48
2022-08-07T00:50:51.092Z,98.89
2022-08-07T00:51:57.318Z,99.19
2022-08-07T00:52:47.371Z,99.60
2022-08-07T00:53:50.689Z,99.80
2022-08-07T00:54:45.293Z,99.91
2022-08-07T00:56:00.698Z,99.80
2022-08-07T00:56:45.293Z,99.80
2022-08-07T00:57:44.435Z,99.91
2022-08-07T00:58:46.872Z,99.80
2022-08-07T00:59:44.243Z,99.99
2022-08-07T01:00:53.413Z,99.99
2022-08-07T01:01:45.297Z,99.99
2022-08-07T01:02:44.204Z,99.99
2022-08-07T01:03:56.660Z,99.99
2022-08-07T01:04:45.183Z,99.99
2022-08-07T01:05:51.703Z,99.99
2022-08-07T01:06:45.156Z,99.99
2022-08-07T01:07:44.165Z,99.99
2022-08-07T01:08:53.532Z,99.99
2022-08-07T01:10:06.171Z,99.99
2022-08-07T01:10:47.684Z,99.99
2022-08-07T01:12:55.336Z,99.99
2022-08-07T01:13:55.984Z,99.99
2022-08-07T01:14:57.081Z,99.99
2022-08-07T01:16:05.132Z,99.99
2022-08-07T01:16:56.295Z,99.99
2022-08-07T01:17:55.256Z,99.99
2022-08-07T01:18:55.246Z,99.99
2022-08-07T01:19:55.229Z,99.99
2022-08-07T01:20:57.524Z,99.99
2022-08-07T01:21:55.639Z,99.99
2022-08-07T01:23:12.338Z,99.99
2022-08-07T01:23:56.188Z,99.99
2022-08-07T01:24:55.178Z,99.99
2022-08-07T01:25:56.453Z,99.99
2022-08-07T01:26:55.165Z,99.99
2022-08-07T01:27:55.171Z,99.99
2022-08-07T01:28:55.137Z,99.99
2022-08-07T01:29:55.143Z,99.90
2022-08-07T01:30:55.126Z,99.79
2022-08-07T01:31:55.109Z,99.90
2022-08-07T01:32:55.119Z,99.99
2022-08-07T01:33:57.600Z,99.99
2022-08-07T01:34:55.070Z,99.99
2022-08-07T01:36:06.270Z,99.99
2022-08-07T01:36:57.930Z,99.99
2022-08-07T01:37:55.069Z,99.99
2022-08-07T01:38:55.031Z,99.99
2022-08-07T01:39:55.051Z,99.99
2022-08-07T01:40:55.007Z,99.90
2022-08-07T01:42:07.350Z,99.95
2022-08-07T01:42:58.812Z,99.90
2022-08-07T01:43:54.991Z,99.79
2022-08-07T01:44:54.970Z,99.74
2022-08-07T01:45:54.957Z,99.64
2022-08-07T01:46:54.959Z,99.43
2022-08-07T01:48:29.490Z,99.43
2022-08-07T01:48:55.919Z,99.43
2022-08-07T01:49:54.935Z,99.43
2022-08-07T01:50:55.541Z,99.33
2022-08-07T01:52:03.211Z,99.43
2022-08-07T01:52:55.879Z,99.43
2022-08-07T01:54:12.325Z,99.54
2022-08-07T01:54:55.863Z,99.64
2022-08-07T01:55:54.838Z,99.64
2022-08-07T01:56:55.152Z,99.54
2022-08-07T01:58:06.444Z,99.43
2022-08-07T01:58:55.810Z,99.33
2022-08-07T01:59:54.802Z,99.02
2022-08-07T02:01:09.273Z,99.02
2022-08-07T02:01:59.634Z,99.27
2022-08-07T02:03:18.207Z,99.48
2022-08-07T02:03:55.813Z,99.58
2022-08-07T02:04:56.057Z,99.68
2022-08-07T02:05:59.996Z,99.79
2022-08-07T02:06:55.713Z,99.79
2022-08-07T02:07:54.701Z,99.99
2022-08-07T02:08:54.693Z,99.99
2022-08-07T02:09:58.783Z,99.99
2022-08-07T02:10:55.314Z,99.99
2022-08-07T02:12:03.736Z,99.99
2022-08-07T02:12:55.670Z,99.99
2022-08-07T02:13:57.218Z,99.99
2022-08-07T02:14:55.623Z,99.99
2022-08-07T02:15:54.613Z,99.99
2022-08-07T02:16:54.604Z,99.99
2022-08-07T02:17:54.614Z,99.99
2022-08-07T02:18:54.586Z,99.99
2022-08-07T02:20:06.993Z,99.99
2022-08-07T02:20:55.802Z,99.99
2022-08-07T02:21:55.245Z,99.99
2022-08-07T02:22:55.125Z,99.99
2022-08-07T02:23:54.524Z,99.99
2022-08-07T02:24:54.515Z,99.99
2022-08-07T02:26:31.576Z,99.99
2022-08-07T02:26:55.496Z,99.99
2022-08-07T02:27:54.508Z,99.99
2022-08-07T02:28:54.468Z,99.99
2022-08-07T02:29:55.107Z,99.99
2022-08-07T02:30:54.444Z,99.99
2022-08-07T02:31:54.664Z,99.99
2022-08-07T02:33:03.778Z,99.99
2022-08-07T02:34:01.814Z,99.99
2022-08-07T02:34:55.395Z,99.99
2022-08-07T02:36:28.645Z,99.99
2022-08-07T02:36:55.399Z,99.99
2022-08-07T02:37:54.367Z,99.99
2022-08-07T02:38:56.796Z,99.99
2022-08-07T02:40:11.611Z,99.99
2022-08-07T02:40:56.060Z,99.99
2022-08-07T02:41:56.471Z,99.99
2022-08-07T02:42:54.306Z,99.99
2022-08-07T02:43:54.296Z,99.99
2022-08-07T02:44:54.306Z,99.99
2022-08-07T02:45:59.235Z,99.99
2022-08-07T02:46:55.288Z,99.99
2022-08-07T02:47:54.257Z,99.99
2022-08-07T02:48:54.867Z,99.99
2022-08-07T02:49:58.932Z,99.99
2022-08-07T02:50:55.229Z,99.99
2022-08-07T02:51:54.208Z,99.99
2022-08-07T02:52:54.201Z,99.99
2022-08-07T02:53:55.211Z,99.99
2022-08-07T02:54:54.178Z,99.99
2022-08-07T02:56:02.191Z,99.99
2022-08-07T02:56:55.149Z,99.99
2022-08-07T02:57:54.167Z,99.99
2022-08-07T02:58:55.373Z,99.99
2022-08-07T02:59:55.287Z,99.99
2022-08-07T03:00:55.159Z,99.99
2022-08-07T03:01:55.368Z,99.99
2022-08-07T03:02:55.389Z,99.99
2022-08-07T03:03:54.108Z,99.99
2022-08-07T03:04:54.098Z,99.99
2022-08-07T03:05:54.049Z,99.99
2022-08-07T03:06:54.042Z,99.99
2022-08-07T03:08:07.295Z,99.99
2022-08-07T03:08:55.039Z,99.99
2022-08-07T03:09:54.038Z,99.99
2022-08-07T03:11:15.019Z,99.99
2022-08-07T03:11:57.723Z,99.99
2022-08-07T03:12:54.972Z,99.99
2022-08-07T03:13:57.513Z,99.99
2022-08-07T03:14:54.950Z,99.99
2022-08-07T03:15:56.608Z,99.99
2022-08-07T03:16:53.932Z,99.99
2022-08-07T03:17:54.385Z,99.99
2022-08-07T03:18:53.930Z,99.99
2022-08-07T03:19:55.181Z,99.99
2022-08-07T03:20:53.881Z,99.99
2022-08-07T03:21:53.871Z,99.99
2022-08-07T03:22:53.861Z,99.99
2022-08-07T03:24:19.720Z,99.99
2022-08-07T03:24:54.843Z,99.99
2022-08-07T03:25:58.333Z,99.99
2022-08-07T03:26:59.023Z,99.99
2022-08-07T03:27:59.098Z,99.99
2022-08-07T03:28:54.822Z,99.99
2022-08-07T03:29:53.782Z,99.99
2022-08-07T03:30:53.771Z,99.99
2022-08-07T03:31:53.762Z,99.99
2022-08-07T03:32:59.212Z,99.99
2022-08-07T03:33:54.742Z,99.99
2022-08-07T03:35:16.713Z,99.99
2022-08-07T03:35:54.714Z,99.99
2022-08-07T03:36:53.910Z,99.99
2022-08-07T03:37:55.112Z,99.99
2022-08-07T03:38:53.681Z,99.99
2022-08-07T03:39:59.479Z,99.99
2022-08-07T03:40:57.295Z,99.99
2022-08-07T03:41:53.653Z,99.99
2022-08-07T03:42:53.641Z,99.99
2022-08-07T03:43:57.117Z,99.99
2022-08-07T03:44:57.936Z,99.99
2022-08-07T03:45:53.623Z,99.99
2022-08-07T03:47:13.306Z,99.99
2022-08-07T03:47:54.582Z,99.99
2022-08-07T03:49:02.432Z,99.99
2022-08-07T03:49:54.575Z,99.99
2022-08-07T03:50:57.654Z,99.99
2022-08-07T03:51:55.328Z,99.99
2022-08-07T03:52:54.523Z,99.99
2022-08-07T03:54:32.802Z,99.99
2022-08-07T03:54:58.966Z,99.99
2022-08-07T03:56:03.712Z,99.99
2022-08-07T03:57:03.370Z,99.99
2022-08-07T03:58:34.960Z,99.99
2022-08-07T03:59:07.889Z,99.99
2022-08-07T04:00:02.960Z,99.99
2022-08-07T04:00:58.246Z,99.99
2022-08-07T04:01:54.494Z,99.99
2022-08-07T04:02:56.759Z,99.99
2022-08-07T04:03:55.525Z,99.99
2022-08-07T04:04:53.414Z,99.99
2022-08-07T04:05:53.386Z,99.99
2022-08-07T04:06:54.394Z,99.99
2022-08-07T04:07:53.355Z,99.99
2022-08-07T04:08:53.347Z,99.99
2022-08-07T04:09:53.335Z,99.99
2022-08-07T04:10:54.290Z,99.99
2022-08-07T04:12:26.570Z,99.99
2022-08-07T04:12:54.304Z,99.99
2022-08-07T04:14:10.806Z,99.99
2022-08-07T04:14:54.286Z,99.99
2022-08-07T04:15:53.267Z,99.99
2022-08-07T04:16:58.698Z,99.99
2022-08-07T04:18:31.043Z,99.99
2022-08-07T04:18:59.738Z,99.99
2022-08-07T04:19:55.191Z,99.99
2022-08-07T04:20:54.527Z,99.99
2022-08-07T04:22:00.191Z,99.99
2022-08-07T04:23:01.442Z,99.99
2022-08-07T04:24:06.989Z,99.99
2022-08-07T04:24:54.166Z,99.99
2022-08-07T04:25:53.156Z,99.99
2022-08-07T04:26:53.155Z,99.99
2022-08-07T04:28:00.680Z,99.99
2022-08-07T04:28:54.118Z,99.99
2022-08-07T04:30:02.230Z,99.99
2022-08-07T04:30:57.123Z,99.99
2022-08-07T04:32:03.042Z,99.99
2022-08-07T04:32:58.337Z,99.99
2022-08-07T04:33:54.970Z,99.99
2022-08-07T04:34:53.069Z,99.99
2022-08-07T04:35:53.808Z,99.99
2022-08-07T04:36:53.045Z,99.99
2022-08-07T04:38:03.520Z,99.99
2022-08-07T04:38:54.015Z,99.99
2022-08-07T04:39:53.094Z,99.99
2022-08-07T04:40:56.892Z,99.99
2022-08-07T04:41:52.979Z,99.99
2022-08-07T04:42:52.980Z,99.99
2022-08-07T04:44:11.889Z,99.99
2022-08-07T04:44:54.445Z,99.99
2022-08-07T04:46:00.921Z,99.99
2022-08-07T04:47:04.800Z,99.99
2022-08-07T04:48:01.325Z,99.99
2022-08-07T04:48:53.937Z,99.99
2022-08-07T04:50:03.716Z,99.99
2022-08-07T04:50:54.079Z,99.99
2022-08-07T04:51:52.871Z,99.99
2022-08-07T04:52:52.933Z,99.99
2022-08-07T04:54:05.792Z,99.99
2022-08-07T04:54:53.870Z,99.99
2022-08-07T04:58:12.790Z,99.99
2022-08-07T04:58:13.161Z,99.99
2022-08-07T04:58:16.886Z,99.99
2022-08-07T05:00:07.772Z,99.99
2022-08-07T05:00:11.845Z,99.99
2022-08-07T05:00:53.815Z,99.99
2022-08-07T05:01:52.760Z,99.99
2022-08-07T05:02:52.752Z,99.99
2022-08-07T05:04:07.091Z,99.99
2022-08-07T05:04:53.765Z,99.99
2022-08-07T05:05:57.280Z,99.99
2022-08-07T05:06:53.078Z,99.99
2022-08-07T05:07:55.465Z,99.99
2022-08-07T05:09:01.540Z,99.99
2022-08-07T05:09:53.691Z,99.99
2022-08-07T05:10:58.397Z,99.99
2022-08-07T05:11:57.603Z,99.99
2022-08-07T05:12:56.227Z,99.99
2022-08-07T05:14:53.900Z,99.99
2022-08-07T05:15:03.228Z,99.99
2022-08-07T05:15:53.721Z,99.99
2022-08-07T05:16:53.132Z,99.99
2022-08-07T05:17:55.236Z,99.99
2022-08-07T05:18:52.573Z,99.99
2022-08-07T05:19:52.670Z,99.99
2022-08-07T05:20:52.550Z,99.99
2022-08-07T05:21:59.797Z,99.99
2022-08-07T05:22:53.573Z,99.99
2022-08-07T05:23:52.523Z,99.99
2022-08-07T05:24:52.543Z,99.99
2022-08-07T05:26:13.260Z,99.99
2022-08-07T05:26:53.485Z,99.99
2022-08-07T05:28:16.072Z,99.95
2022-08-07T05:28:53.464Z,99.91
2022-08-07T05:29:52.444Z,99.60
2022-08-07T05:30:52.655Z,99.50
2022-08-07T05:31:53.046Z,99.50
2022-08-07T05:32:52.412Z,99.40
2022-08-07T05:34:04.881Z,99.29
2022-08-07T05:34:53.391Z,99.09
2022-08-07T05:35:52.381Z,98.89
2022-08-07T05:36:53.007Z,98.99
2022-08-07T05:38:08.581Z,98.89
2022-08-07T05:39:00.644Z,98.64
2022-08-07T05:40:17.166Z,98.54
2022-08-07T05:40:53.346Z,98.43
2022-08-07T05:42:02.808Z,97.92
2022-08-07T05:42:55.865Z,97.82
2022-08-07T05:44:08.291Z,97.82
2022-08-07T05:45:14.269Z,97.82
2022-08-07T05:45:56.574Z,97.67
2022-08-07T05:46:52.255Z,97.67
2022-08-07T05:48:01.777Z,97.67
2022-08-07T05:48:59.077Z,97.57
2022-08-07T05:49:53.215Z,97.16
2022-08-07T05:50:52.205Z,97.16
2022-08-07T05:51:52.195Z,97.12
2022-08-07T05:52:52.222Z,97.12
2022-08-07T05:54:12.182Z,97.02
2022-08-07T05:54:55.780Z,97.02
2022-08-07T05:56:03.751Z,96.87
2022-08-07T05:56:53.142Z,96.46
2022-08-07T05:57:52.146Z,96.26
2022-08-07T05:58:52.783Z,96.06
2022-08-07T05:59:57.826Z,95.85
2022-08-07T06:00:53.097Z,95.65
2022-08-07T06:01:52.134Z,95.54
2022-08-07T06:02:52.077Z,94.69
2022-08-07T06:03:56.438Z,94.38
2022-08-07T06:04:53.093Z,94.08
2022-08-07T06:05:56.373Z,94.13
2022-08-07T06:06:56.650Z,94.13
2022-08-07T06:08:13.284Z,94.24
2022-08-07T06:08:53.021Z,93.73
2022-08-07T06:10:05.431Z,93.43
2022-08-07T06:10:54.674Z,93.83
2022-08-07T06:11:51.974Z,93.79
2022-08-07T06:12:51.967Z,93.48
2022-08-07T06:14:12.789Z,93.59
2022-08-07T06:14:52.941Z,93.48
2022-08-07T06:15:51.929Z,93.33
2022-08-07T06:16:55.974Z,93.24
2022-08-07T06:17:55.302Z,93.13
2022-08-07T06:18:55.732Z,93.13
2022-08-07T06:20:03.673Z,93.13
2022-08-07T06:22:16.733Z,93.13
2022-08-07T06:22:16.971Z,92.63
2022-08-07T06:23:09.394Z,92.38
2022-08-07T06:24:45.436Z,92.28
2022-08-07T06:24:57.657Z,92.07
2022-08-07T06:25:54.043Z,92.18
2022-08-07T06:26:51.809Z,91.77
2022-08-07T06:28:01.641Z,91.42
2022-08-07T06:28:53.025Z,91.02
2022-08-07T06:29:51.771Z,91.32
2022-08-07T06:30:52.955Z,91.02
2022-08-07T06:31:51.761Z,90.47
2022-08-07T06:32:51.757Z,90.06
2022-08-07T06:33:51.753Z,89.96
2022-08-07T06:34:51.722Z,90.06
2022-08-07T06:36:12.796Z,89.96
2022-08-07T06:36:52.709Z,90.12
2022-08-07T06:37:52.887Z,89.51
2022-08-07T06:40:12.954Z,89.31
2022-08-07T06:40:16.173Z,88.80
2022-08-07T06:40:52.927Z,88.56
2022-08-07T06:42:03.108Z,88.25
2022-08-07T06:42:52.639Z,88.46
2022-08-07T06:43:59.469Z,88.66
2022-08-07T06:44:52.621Z,88.25
2022-08-07T06:45:51.723Z,88.05
2022-08-07T06:46:53.596Z,87.91
2022-08-07T06:47:57.279Z,87.91
2022-08-07T06:48:52.604Z,87.81
2022-08-07T06:49:58.279Z,87.51
2022-08-07T06:50:52.553Z,87.05
2022-08-07T06:51:51.543Z,86.96
2022-08-07T06:52:52.892Z,86.55
2022-08-07T06:55:28.411Z,86.35
2022-08-07T06:55:32.699Z,86.41
2022-08-07T06:56:01.957Z,86.10
2022-08-07T06:56:52.486Z,86.10
2022-08-07T06:57:54.914Z,85.70
2022-08-07T07:00:11.591Z,85.76
2022-08-07T07:00:13.437Z,85.96
2022-08-07T07:00:52.703Z,85.66
2022-08-07T07:01:51.488Z,85.76
2022-08-07T07:02:57.222Z,85.66
2022-08-07T07:03:57.136Z,85.42
2022-08-07T07:04:54.924Z,85.52
2022-08-07T07:06:03.017Z,85.22
2022-08-07T07:07:00.264Z,84.51
2022-08-07T07:07:59.243Z,84.71
2022-08-07T07:08:52.346Z,84.51
2022-08-07T07:09:51.348Z,84.31
2022-08-07T07:10:54.892Z,84.11
2022-08-07T07:12:07.724Z,83.76
2022-08-07T07:14:02.750Z,83.86
2022-08-07T07:15:03.414Z,83.66
2022-08-07T07:16:02.492Z,83.01
2022-08-07T07:17:02.500Z,81.70
2022-08-07T07:18:02.472Z,82.01
2022-08-07T07:19:11.416Z,82.21
2022-08-07T07:20:03.453Z,82.41
2022-08-07T07:21:02.434Z,81.90
2022-08-07T07:22:04.800Z,81.30
2022-08-07T07:24:09.999Z,80.25
2022-08-07T07:24:10.062Z,81.05
2022-08-07T07:26:30.878Z,79.54
2022-08-07T07:26:35.471Z,79.85
2022-08-07T07:27:03.384Z,80.05
2022-08-07T07:28:07.547Z,79.94
2022-08-07T07:29:56.217Z,80.01
2022-08-07T07:30:09.836Z,80.01
2022-08-07T07:31:03.323Z,79.50
2022-08-07T07:32:02.335Z,78.86
2022-08-07T07:33:02.327Z,78.36
2022-08-07T07:34:02.286Z,77.95
2022-08-07T07:35:03.997Z,78.02
2022-08-07T07:36:05.316Z,78.42
2022-08-07T07:37:05.570Z,77.72
2022-08-07T07:38:05.831Z,76.71
2022-08-07T07:39:02.332Z,76.31
2022-08-07T07:40:02.278Z,76.27
2022-08-07T07:41:02.730Z,76.57
2022-08-07T07:42:13.231Z,75.67
2022-08-07T07:43:15.066Z,76.27
2022-08-07T07:44:18.051Z,76.17
2022-08-07T07:45:03.187Z,75.56
2022-08-07T07:46:53.684Z,74.52
2022-08-07T07:47:15.922Z,74.12
2022-08-07T07:48:03.167Z,74.22
2022-08-07T07:49:09.164Z,74.02
2022-08-07T07:50:36.106Z,72.61
2022-08-07T07:51:03.121Z,72.77
2022-08-07T07:52:03.331Z,73.58
2022-08-07T07:53:02.077Z,73.18
2022-08-07T07:54:02.071Z,72.67
2022-08-07T07:55:03.419Z,72.47
2022-08-07T07:56:02.048Z,72.24
2022-08-07T07:57:02.910Z,72.44
2022-08-07T07:58:02.019Z,72.44
2022-08-07T07:59:02.127Z,73.14
2022-08-07T08:00:02.124Z,72.14
2022-08-07T08:01:02.059Z,71.94
2022-08-07T08:02:10.707Z,71.70
2022-08-07T08:03:05.589Z,71.70
2022-08-07T08:04:10.909Z,72.71
2022-08-07T08:05:02.969Z,72.61
2022-08-07T08:06:01.932Z,72.41
2022-08-07T08:07:02.834Z,72.00
2022-08-07T08:08:03.084Z,72.17
2022-08-07T08:09:01.892Z,73.18
2022-08-07T08:10:05.279Z,71.56
2022-08-07T08:11:01.892Z,70.46
2022-08-07T08:12:05.265Z,69.52
2022-08-07T08:13:02.888Z,69.02
2022-08-07T08:14:01.846Z,69.32
2022-08-07T08:15:01.824Z,69.22
2022-08-07T08:16:02.842Z,69.12
2022-08-07T08:17:32.442Z,68.32
2022-08-07T08:18:17.182Z,67.88
2022-08-07T08:19:17.907Z,68.38
2022-08-07T08:20:17.859Z,67.58
2022-08-07T08:21:02.766Z,67.48
2022-08-07T08:22:03.642Z,68.29
2022-08-07T08:23:01.766Z,68.79
2022-08-07T08:24:01.733Z,69.09
2022-08-07T08:25:09.447Z,69.15
2022-08-07T08:26:07.006Z,69.85
2022-08-07T08:27:01.694Z,68.55
2022-08-07T08:28:03.958Z,66.55
2022-08-07T08:29:01.674Z,66.35
2022-08-07T08:30:02.884Z,66.44
2022-08-07T08:31:01.653Z,66.95
2022-08-07T08:32:17.879Z,67.82
2022-08-07T08:33:03.010Z,67.82
2022-08-07T08:34:01.648Z,68.42
2022-08-07T08:35:01.606Z,68.42
2022-08-07T08:36:01.595Z,68.29
2022-08-07T08:37:01.587Z,66.78
2022-08-07T08:38:04.720Z,66.48
2022-08-07T08:39:02.433Z,66.28
2022-08-07T08:40:01.640Z,65.38
2022-08-07T08:41:02.841Z,65.48
2022-08-07T08:42:01.529Z,65.98
2022-08-07T08:43:01.517Z,65.88
2022-08-07T08:44:01.509Z,65.85
2022-08-07T08:45:01.518Z,65.85
2022-08-07T08:46:01.490Z,65.65
2022-08-07T08:47:01.478Z,66.25
2022-08-07T08:48:01.467Z,63.24
2022-08-07T08:49:01.450Z,62.94
2022-08-07T08:50:04.756Z,63.14
2022-08-07T08:51:03.282Z,63.42
2022-08-07T08:52:14.280Z,63.42
2022-08-07T08:53:02.402Z,63.42
2022-08-07T08:54:01.401Z,63.51
2022-08-07T08:55:01.409Z,64.22
2022-08-07T08:56:02.375Z,63.89
2022-08-07T08:57:01.361Z,63.39
2022-08-07T08:58:01.352Z,63.18
2022-08-07T08:59:06.401Z,63.39
2022-08-07T09:00:02.351Z,63.08
2022-08-07T09:01:01.355Z,62.28
2022-08-07T09:02:02.374Z,61.88
2022-08-07T09:03:01.293Z,61.78
2022-08-07T09:04:02.283Z,61.95
2022-08-07T09:05:01.275Z,61.65
2022-08-07T09:06:01.286Z,58.07
2022-08-07T09:07:01.246Z,58.18
2022-08-07T09:08:01.243Z,58.58
2022-08-07T09:09:01.224Z,59.68
2022-08-07T09:10:03.199Z,59.45
2022-08-07T09:11:01.224Z,59.75
2022-08-07T09:12:20.159Z,60.25
2022-08-07T09:13:02.189Z,60.25
2022-08-07T09:14:01.175Z,59.15
2022-08-07T09:15:01.163Z,59.95
2022-08-07T09:16:24.319Z,60.15
2022-08-07T09:17:02.135Z,59.92
2022-08-07T09:18:08.743Z,60.52
2022-08-07T09:19:03.442Z,59.72
2022-08-07T09:20:02.107Z,59.02
2022-08-07T09:21:02.095Z,57.72
2022-08-07T09:22:36.761Z,58.00
2022-08-07T09:24:32.611Z,57.50
2022-08-07T09:24:33.423Z,57.19
2022-08-07T09:25:07.124Z,58.99
2022-08-07T09:26:02.038Z,59.09
2022-08-07T09:27:04.634Z,58.29
2022-08-07T09:28:03.120Z,57.29
2022-08-07T09:30:01.792Z,56.29
2022-08-07T09:30:08.425Z,57.07
2022-08-07T09:31:02.883Z,56.57
2022-08-07T09:32:00.979Z,56.16
2022-08-07T09:33:05.661Z,54.47
2022-08-07T09:34:01.951Z,54.47
2022-08-07T09:35:04.611Z,54.27
2022-08-07T09:36:05.573Z,53.87
2022-08-07T09:37:00.920Z,55.44
2022-08-07T09:38:00.911Z,53.74
2022-08-07T09:39:11.315Z,53.14
2022-08-07T09:40:01.956Z,52.74
2022-08-07T09:41:00.880Z,54.14
2022-08-07T09:42:04.133Z,55.64
2022-08-07T09:43:01.853Z,55.71
2022-08-07T09:44:06.914Z,53.52
2022-08-07T09:47:27.671Z,52.89
2022-08-07T09:47:42.457Z,52.00
2022-08-07T09:47:51.763Z,52.72
2022-08-07T09:48:05.186Z,51.40
2022-08-07T09:50:00.574Z,50.60
2022-08-07T09:50:18.620Z,50.99
2022-08-07T09:51:01.784Z,53.56
2022-08-07T09:52:09.954Z,53.47
2022-08-07T09:53:01.766Z,50.74
2022-08-07T09:54:02.875Z,51.25
2022-08-07T09:55:00.714Z,51.45
2022-08-07T09:56:03.580Z,51.82
2022-08-07T09:57:00.696Z,53.02
2022-08-07T09:58:00.694Z,53.39
2022-08-07T09:59:00.697Z,51.97
2022-08-07T10:00:01.805Z,48.98
2022-08-07T10:01:00.657Z,49.16
2022-08-07T10:02:00.645Z,49.53
2022-08-07T10:03:07.954Z,50.10
2022-08-07T10:04:05.293Z,49.78
2022-08-07T10:05:12.586Z,48.86
2022-08-07T10:06:02.854Z,47.25
2022-08-07T10:07:00.588Z,46.64
2022-08-07T10:08:01.039Z,45.52
2022-08-07T10:09:00.587Z,45.70
2022-08-07T10:10:02.917Z,46.57
2022-08-07T10:11:59.203Z,47.14
2022-08-07T10:12:11.766Z,46.52
2022-08-07T10:13:01.530Z,45.98
2022-08-07T10:14:02.326Z,42.52
2022-08-07T10:15:00.506Z,42.80
2022-08-07T10:16:00.490Z,41.33
2022-08-07T10:17:00.892Z,42.43
2022-08-07T10:18:03.227Z,41.93
2022-08-07T10:19:00.466Z,40.82
2022-08-07T10:20:00.469Z,41.00
2022-08-07T10:21:00.434Z,40.41
2022-08-07T10:22:15.600Z,40.29
2022-08-07T10:23:01.412Z,39.86
2022-08-07T10:24:05.005Z,39.36
2022-08-07T10:25:01.413Z,40.03
2022-08-07T10:26:00.561Z,39.72
2022-08-07T10:27:00.372Z,38.62
2022-08-07T10:28:00.355Z,38.10
2022-08-07T10:29:00.355Z,37.69
2022-08-07T10:30:00.336Z,36.99
2022-08-07T10:31:00.345Z,37.84
2022-08-07T10:32:01.351Z,36.65
2022-08-07T10:33:00.327Z,37.32
2022-08-07T10:34:05.769Z,37.40
2022-08-07T10:35:01.286Z,36.41
2022-08-07T10:36:05.467Z,37.32
2022-08-07T10:37:03.905Z,36.59
2022-08-07T10:38:21.034Z,36.57
2022-08-07T10:39:01.292Z,36.05
2022-08-07T10:40:05.104Z,35.67
2022-08-07T10:41:01.248Z,35.36
2022-08-07T10:42:09.113Z,36.65
2022-08-07T10:43:01.203Z,36.10
2022-08-07T10:44:02.348Z,35.97
2022-08-07T10:45:01.178Z,35.83
2022-08-07T10:46:00.160Z,34.78
2022-08-07T10:47:00.183Z,36.66
2022-08-07T10:48:03.515Z,38.33
2022-08-07T10:49:00.132Z,40.56
2022-08-07T10:50:00.132Z,41.00
2022-08-07T10:51:00.111Z,42.63
2022-08-07T10:52:13.128Z,42.90
2022-08-07T10:53:05.266Z,40.53
2022-08-07T10:54:01.072Z,39.17
2022-08-07T10:55:07.824Z,38.12
2022-08-07T10:56:02.462Z,36.99
2022-08-07T10:57:00.062Z,36.47
2022-08-07T10:58:00.068Z,35.38
2022-08-07T10:59:00.275Z,36.38
2022-08-07T11:00:00.025Z,35.88
2022-08-07T11:01:00.017Z,36.22
2022-08-07T11:02:05.132Z,33.97
2022-08-07T11:03:01.137Z,34.38
2022-08-07T11:04:23.353Z,34.47
2022-08-07T11:05:04.194Z,35.08
2022-08-07T11:06:00.968Z,35.57
2022-08-07T11:06:59.938Z,35.83
2022-08-07T11:08:02.734Z,36.27
2022-08-07T11:08:59.926Z,35.55
2022-08-07T11:10:09.209Z,34.72
2022-08-07T11:11:00.919Z,33.70
2022-08-07T11:11:59.880Z,31.92
2022-08-07T11:13:01.725Z,31.51
2022-08-07T11:14:46.297Z,31.79
2022-08-07T11:15:01.206Z,32.08
2022-08-07T11:15:59.840Z,30.13
2022-08-07T11:17:01.955Z,31.98
2022-08-07T11:18:03.639Z,30.93
2022-08-07T11:18:59.814Z,31.09
2022-08-07T11:19:59.802Z,33.15
2022-08-07T11:20:59.794Z,33.14
2022-08-07T11:22:00.230Z,30.87
2022-08-07T11:22:59.794Z,30.07
2022-08-07T11:24:00.340Z,31.03
2022-08-07T11:24:59.754Z,32.03
2022-08-07T11:26:06.482Z,30.10
2022-08-07T11:27:01.251Z,31.49
2022-08-07T11:28:02.036Z,31.38
2022-08-07T11:28:59.715Z,30.02
2022-08-07T11:30:17.637Z,32.67
2022-08-07T11:31:00.689Z,32.75
2022-08-07T11:31:59.679Z,31.87
2022-08-07T11:32:59.696Z,30.81
2022-08-07T11:34:00.817Z,30.21
2022-08-07T11:34:59.701Z,30.60
2022-08-07T11:36:00.631Z,30.09
2022-08-07T11:37:00.376Z,31.49
2022-08-07T11:38:10.117Z,31.93
2022-08-07T11:39:00.652Z,32.81
2022-08-07T11:40:03.444Z,33.28
2022-08-07T11:40:59.592Z,32.82
2022-08-07T11:42:02.156Z,32.78
2022-08-07T11:42:59.767Z,32.05
2022-08-07T11:44:12.699Z,31.84
2022-08-07T11:45:00.552Z,32.06
2022-08-07T11:45:59.539Z,33.59
2022-08-07T11:46:59.532Z,33.84
2022-08-07T11:48:02.656Z,33.28
2022-08-07T11:49:27.708Z,33.25
2022-08-07T11:50:31.331Z,33.05
2022-08-07T11:51:00.491Z,33.95
2022-08-07T11:51:59.474Z,33.29
2022-08-07T11:52:59.474Z,33.28
2022-08-07T11:54:01.371Z,31.71
2022-08-07T11:54:59.480Z,32.06
2022-08-07T11:56:24.998Z,33.08
2022-08-07T11:57:00.428Z,34.16
2022-08-07T11:58:01.614Z,33.25
2022-08-07T11:58:59.408Z,32.57
2022-08-07T12:00:11.412Z,33.26
2022-08-07T12:01:04.390Z,33.15
2022-08-07T12:02:01.255Z,32.63
2022-08-07T12:02:59.415Z,33.04
2022-08-07T12:03:59.417Z,33.61
2022-08-07T12:04:59.351Z,34.56
2022-08-07T12:05:59.542Z,35.99
2022-08-07T12:07:07.893Z,37.27
2022-08-07T12:08:03.891Z,35.11
2022-08-07T12:08:59.318Z,33.77
2022-08-07T12:09:59.323Z,32.64
2022-08-07T12:11:08.103Z,31.93
2022-08-07T12:12:09.611Z,32.03
2022-08-07T12:13:00.271Z,31.81
2022-08-07T12:13:59.262Z,31.88
2022-08-07T12:15:01.214Z,32.65
2022-08-07T12:16:06.142Z,31.93
2022-08-07T12:17:00.232Z,31.22
2022-08-07T12:18:01.102Z,31.25
2022-08-07T12:19:00.214Z,31.95
2022-08-07T12:20:06.298Z,33.18
2022-08-07T12:21:00.214Z,30.93
2022-08-07T12:22:39.082Z,30.81
2022-08-07T12:23:00.197Z,31.67
2022-08-07T12:24:07.216Z,31.64
2022-08-07T12:25:02.640Z,31.24
2022-08-07T12:26:05.376Z,30.72
2022-08-07T12:27:00.135Z,30.30
2022-08-07T12:28:09.925Z,30.95
2022-08-07T12:29:00.617Z,30.65
2022-08-07T12:29:59.098Z,30.05
2022-08-07T12:30:59.118Z,29.15
2022-08-07T12:32:04.365Z,29.33
2022-08-07T12:33:00.079Z,29.12
2022-08-07T12:34:01.966Z,28.81
2022-08-07T12:35:00.998Z,27.15
2022-08-07T12:35:59.041Z,27.06
2022-08-07T12:36:59.039Z,26.08
2022-08-07T12:38:09.436Z,25.68
2022-08-07T12:39:00.109Z,26.85
2022-08-07T12:39:59.074Z,26.74
2022-08-07T12:40:59.043Z,27.64
2022-08-07T12:41:58.983Z,30.04
2022-08-07T12:42:58.983Z,31.06
2022-08-07T12:43:59.014Z,31.60
2022-08-07T12:44:59.965Z,33.28
2022-08-07T12:45:58.954Z,32.79
2022-08-07T12:46:58.947Z,32.96
2022-08-07T12:47:58.933Z,32.40
2022-08-07T12:48:58.926Z,32.91
2022-08-07T12:50:04.629Z,33.31
2022-08-07T12:50:59.906Z,33.94
2022-08-07T12:52:13.786Z,34.64
2022-08-07T12:52:59.887Z,35.24
2022-08-07T12:54:03.384Z,35.32
2022-08-07T12:55:03.685Z,32.50